Terminal Aerodrome Forecast
Issued by NWS Charleston, WV

Current Version | Previous Version | Text Only | Print | Product List | Glossary Off
Versions: 1 2 3 4 5 6 7 8 9 10 11 12 13 14 15 16 17 18 19 20 21 22 23 24 25

245
FTUS41 KRLX 102320
TAFEKN
TAF
KEKN 102320Z 1100/1124 27011G17KT 3SM -SHSN OVC015
     FM111000 28012G19KT 4SM -SHSN BKN025
     FM111400 28012G18KT P6SM BKN025
     FM112300 29009KT P6SM BKN035=

USA.gov is the U.S. government's official web portal to all federal, state and local government web resources and services.